createdAt,value
2023-04-01T00:01:23.859Z,87.67
2023-04-01T00:03:50.919Z,88.33
2023-04-01T00:06:17.555Z,89.06
2023-04-01T00:08:44.214Z,89.05
2023-04-01T00:11:10.650Z,90.12
2023-04-01T00:13:37.112Z,91.03
2023-04-01T00:16:09.734Z,90.97
2023-04-01T00:18:44.238Z,89.57
2023-04-01T00:21:10.892Z,89.99
2023-04-01T00:23:37.376Z,89.03
2023-04-01T00:26:03.902Z,90.92
2023-04-01T00:28:30.328Z,89.26
2023-04-01T00:30:56.756Z,89.69
2023-04-01T00:33:23.163Z,89.68
2023-04-01T00:35:49.800Z,89.16
2023-04-01T00:38:18.075Z,88.83
2023-04-01T00:40:44.518Z,89.52
2023-04-01T00:43:11.133Z,88.82
2023-04-01T00:45:37.669Z,89.16
2023-04-01T00:48:04.201Z,89.50
2023-04-01T00:50:31.017Z,89.77
2023-04-01T00:52:57.443Z,89.65
2023-04-01T00:55:23.929Z,90.95
2023-04-01T00:57:50.358Z,91.02
2023-04-01T01:00:17.044Z,91.20
2023-04-01T01:02:43.534Z,91.17
2023-04-01T01:05:09.982Z,91.89
2023-04-01T01:07:36.414Z,91.39
2023-04-01T01:10:02.926Z,91.99
2023-04-01T01:12:29.355Z,92.04
2023-04-01T01:14:55.887Z,92.25
2023-04-01T01:17:22.394Z,91.57
2023-04-01T01:19:49.532Z,92.02
2023-04-01T01:22:16.216Z,91.09
2023-04-01T01:24:42.666Z,91.24
2023-04-01T01:27:09.086Z,88.59
2023-04-01T01:29:35.708Z,88.42
2023-04-01T01:32:02.365Z,87.69
2023-04-01T01:34:28.788Z,88.07
2023-04-01T01:36:55.206Z,88.01
2023-04-01T01:39:22.063Z,87.06
2023-04-01T01:41:50.543Z,87.20
2023-04-01T01:44:16.974Z,87.21
2023-04-01T01:46:43.515Z,87.95
2023-04-01T01:49:09.954Z,88.34
2023-04-01T01:51:36.413Z,88.43
2023-04-01T01:54:02.825Z,88.16
2023-04-01T01:56:29.257Z,87.82
2023-04-01T01:58:55.678Z,88.10
2023-04-01T02:01:22.122Z,88.13
2023-04-01T02:03:48.594Z,87.65
2023-04-01T02:06:15.038Z,87.38
2023-04-01T02:08:41.568Z,87.42
2023-04-01T02:11:08.020Z,87.92
2023-04-01T02:13:34.488Z,88.12
2023-04-01T02:16:01.427Z,87.87
2023-04-01T02:18:27.857Z,86.67
2023-04-01T02:20:54.508Z,87.38
2023-04-01T02:23:21.150Z,87.42
2023-04-01T02:25:47.572Z,86.58
2023-04-01T02:28:14.108Z,86.45
2023-04-01T02:30:41.308Z,86.70
2023-04-01T02:33:07.771Z,86.34
2023-04-01T02:35:34.345Z,85.62
2023-04-01T02:38:00.903Z,86.46
2023-04-01T02:40:27.336Z,85.70
2023-04-01T02:42:53.794Z,85.95
2023-04-01T02:45:20.254Z,85.61
2023-04-01T02:47:46.757Z,85.86
2023-04-01T02:50:13.220Z,86.83
2023-04-01T02:52:39.698Z,85.51
2023-04-01T02:55:06.226Z,85.30
2023-04-01T02:57:32.732Z,85.34
2023-04-01T02:59:59.228Z,85.38
2023-04-01T03:02:25.818Z,85.42
2023-04-01T03:04:52.308Z,85.37
2023-04-01T03:07:18.750Z,85.03
2023-04-01T03:09:45.152Z,85.15
2023-04-01T03:12:11.602Z,84.72
2023-04-01T03:14:38.016Z,85.27
2023-04-01T03:17:04.429Z,85.03
2023-04-01T03:19:31.032Z,85.44
2023-04-01T03:21:57.478Z,84.70
2023-04-01T03:24:23.930Z,84.73
2023-04-01T03:26:50.439Z,84.71
2023-04-01T03:29:17.059Z,84.44
2023-04-01T03:31:43.525Z,84.58
2023-04-01T03:34:10.098Z,85.18
2023-04-01T03:36:36.549Z,85.00
2023-04-01T03:39:04.264Z,84.70
2023-04-01T03:41:31.934Z,84.76
2023-04-01T03:43:58.462Z,84.27
2023-04-01T03:46:24.976Z,84.72
2023-04-01T03:48:51.504Z,84.40
2023-04-01T03:51:17.957Z,84.47
2023-04-01T03:53:44.383Z,83.97
2023-04-01T03:56:10.868Z,83.93
2023-04-01T03:58:37.277Z,83.90
2023-04-01T04:01:03.722Z,83.67
2023-04-01T04:03:30.273Z,84.01
2023-04-01T04:05:57.629Z,83.30
2023-04-01T04:08:24.094Z,83.09
2023-04-01T04:10:50.715Z,82.96
2023-04-01T04:13:17.211Z,83.02
2023-04-01T04:15:43.651Z,82.79
2023-04-01T04:18:10.134Z,82.41
2023-04-01T04:20:36.911Z,82.51
2023-04-01T04:23:03.383Z,82.89
2023-04-01T04:25:29.799Z,82.33
2023-04-01T04:27:56.261Z,82.39
2023-04-01T04:30:22.693Z,81.36
2023-04-01T04:32:49.153Z,82.83
2023-04-01T04:35:15.775Z,81.69
2023-04-01T04:37:42.226Z,81.39
2023-04-01T04:40:08.656Z,81.24
2023-04-01T04:42:35.086Z,81.58
2023-04-01T04:45:01.506Z,80.21
2023-04-01T04:47:28.023Z,80.14
2023-04-01T04:49:54.458Z,80.74
2023-04-01T04:52:20.880Z,80.33
2023-04-01T04:54:47.322Z,80.37
2023-04-01T04:57:13.794Z,80.70
2023-04-01T04:59:40.264Z,79.83
2023-04-01T05:02:06.699Z,80.28
2023-04-01T05:04:33.136Z,79.75
2023-04-01T05:06:59.545Z,80.83
2023-04-01T05:09:25.988Z,80.41
2023-04-01T05:11:52.434Z,80.53
2023-04-01T05:14:18.846Z,80.78
2023-04-01T05:16:45.359Z,80.42
2023-04-01T05:19:11.883Z,80.33
2023-04-01T05:21:38.334Z,80.65
2023-04-01T05:24:04.740Z,80.52
2023-04-01T05:26:31.817Z,80.49
2023-04-01T05:28:58.224Z,80.31
2023-04-01T05:31:25.356Z,80.37
2023-04-01T05:33:51.838Z,80.61
2023-04-01T05:36:18.296Z,80.80
2023-04-01T05:38:47.023Z,80.83
2023-04-01T05:41:13.466Z,80.59
2023-04-01T05:43:39.938Z,81.44
2023-04-01T05:46:06.461Z,82.13
2023-04-01T05:48:32.951Z,80.94
2023-04-01T05:50:59.368Z,80.83
2023-04-01T05:53:25.918Z,80.46
2023-04-01T05:55:52.341Z,80.20
2023-04-01T05:58:18.811Z,81.04
2023-04-01T06:00:46.519Z,81.01
2023-04-01T06:03:13.231Z,81.87
2023-04-01T06:05:39.732Z,81.90
2023-04-01T06:08:06.145Z,82.54
2023-04-01T06:10:32.562Z,83.33
2023-04-01T06:12:59.004Z,81.47
2023-04-01T06:15:25.471Z,82.74
2023-04-01T06:17:51.928Z,83.19
2023-04-01T06:20:19.191Z,85.30
2023-04-01T06:22:45.736Z,85.10
2023-04-01T06:25:12.208Z,84.29
2023-04-01T06:27:38.668Z,84.38
2023-04-01T06:30:05.354Z,82.63
2023-04-01T06:32:31.855Z,81.13
2023-04-01T06:34:58.285Z,81.41
2023-04-01T06:37:24.724Z,80.48
2023-04-01T06:39:51.535Z,80.45
2023-04-01T06:42:18.011Z,81.23
2023-04-01T06:44:44.461Z,78.97
2023-04-01T06:47:11.051Z,78.76
2023-04-01T06:49:37.535Z,77.56
2023-04-01T06:52:03.950Z,77.22
2023-04-01T06:54:30.396Z,77.64
2023-04-01T06:56:58.511Z,76.68
2023-04-01T06:59:24.947Z,76.71
2023-04-01T07:01:51.434Z,76.26
2023-04-01T07:04:17.889Z,76.50
2023-04-01T07:06:44.311Z,75.53
2023-04-01T07:09:10.728Z,75.31
2023-04-01T07:11:37.199Z,74.25
2023-04-01T07:14:03.666Z,74.59
2023-04-01T07:16:30.608Z,74.69
2023-04-01T07:18:57.054Z,74.16
2023-04-01T07:21:23.481Z,74.30
2023-04-01T07:23:49.908Z,74.03
2023-04-01T07:26:16.501Z,73.15
2023-04-01T07:28:43.818Z,74.12
2023-04-01T07:31:10.331Z,73.93
2023-04-01T07:33:36.803Z,74.41
2023-04-01T07:36:03.275Z,75.01
2023-04-01T07:38:29.798Z,73.60
2023-04-01T07:40:56.281Z,73.96
2023-04-01T07:43:22.743Z,73.14
2023-04-01T07:45:49.152Z,73.27
2023-04-01T07:48:15.566Z,73.23
2023-04-01T07:50:42.005Z,73.36
2023-04-01T07:53:08.514Z,72.47
2023-04-01T07:55:35.179Z,72.92
2023-04-01T07:58:01.820Z,73.69
2023-04-01T08:00:28.225Z,72.68
2023-04-01T08:02:54.699Z,72.69
2023-04-01T08:05:21.472Z,72.44
2023-04-01T08:07:47.998Z,74.04
2023-04-01T08:10:14.423Z,73.00
2023-04-01T08:12:40.914Z,72.52
2023-04-01T08:15:07.349Z,72.62
2023-04-01T08:17:33.850Z,72.62
2023-04-01T08:20:00.313Z,71.39
2023-04-01T08:22:26.739Z,72.12
2023-04-01T08:24:53.185Z,70.84
2023-04-01T08:27:19.603Z,70.90
2023-04-01T08:29:46.723Z,70.15
2023-04-01T08:32:13.349Z,69.24
2023-04-01T08:34:39.898Z,69.83
2023-04-01T08:37:06.408Z,68.55
2023-04-01T08:39:32.878Z,69.11
2023-04-01T08:48:09.850Z,68.42
2023-04-01T08:50:36.408Z,68.60
2023-04-01T08:53:04.863Z,69.35
2023-04-01T08:55:31.599Z,68.92
2023-04-01T08:57:58.322Z,68.82
2023-04-01T09:00:24.747Z,68.97
2023-04-01T09:02:51.410Z,68.05
2023-04-01T09:05:17.980Z,69.02
2023-04-01T09:07:44.524Z,68.53
2023-04-01T09:10:11.141Z,69.41
2023-04-01T09:12:38.812Z,69.83
2023-04-01T09:15:05.631Z,67.54
2023-04-01T09:17:32.181Z,67.84
2023-04-01T09:19:58.650Z,67.53
2023-04-01T09:22:25.079Z,68.59
2023-04-01T09:24:51.562Z,68.52
2023-04-01T09:27:17.988Z,68.56
2023-04-01T09:29:44.396Z,68.90
2023-04-01T09:32:10.937Z,68.60
2023-04-01T09:34:37.527Z,67.68
2023-04-01T09:37:03.935Z,67.38
2023-04-01T09:39:30.346Z,67.34
2023-04-01T09:41:56.789Z,67.39
2023-04-01T09:44:23.223Z,67.24
2023-04-01T09:46:49.763Z,67.55
2023-04-01T09:49:16.409Z,67.55
2023-04-01T09:51:42.849Z,67.05
2023-04-01T09:54:09.511Z,67.20
2023-04-01T09:56:35.978Z,66.14
2023-04-01T09:59:02.429Z,65.57
2023-04-01T10:01:29.152Z,65.70
2023-04-01T10:03:55.832Z,66.13
2023-04-01T10:06:22.259Z,65.93
2023-04-01T10:08:53.254Z,66.46
2023-04-01T10:11:19.760Z,66.66
2023-04-01T10:13:46.688Z,67.22
2023-04-01T10:16:13.199Z,66.77
2023-04-01T10:18:39.634Z,66.55
2023-04-01T10:21:06.929Z,66.29
2023-04-01T10:23:33.354Z,65.85
2023-04-01T10:25:59.792Z,65.60
2023-04-01T10:28:26.231Z,66.08
2023-04-01T10:30:52.655Z,66.15
2023-04-01T10:33:19.135Z,66.46
2023-04-01T10:35:45.663Z,66.23
2023-04-01T10:38:12.132Z,67.15
2023-04-01T10:40:38.578Z,66.14
2023-04-01T10:43:05.000Z,67.28
2023-04-01T10:45:31.620Z,66.80
2023-04-01T10:47:58.343Z,66.99
2023-04-01T10:50:24.899Z,68.66
2023-04-01T10:52:51.361Z,67.22
2023-04-01T10:55:17.819Z,66.22
2023-04-01T10:57:44.437Z,65.58
2023-04-01T11:00:10.957Z,65.86
2023-04-01T11:02:37.514Z,65.42
2023-04-01T11:05:03.970Z,63.96
2023-04-01T11:07:30.482Z,64.55
2023-04-01T11:09:56.963Z,65.27
2023-04-01T11:12:23.408Z,64.98
2023-04-01T11:14:49.880Z,64.66
2023-04-01T11:17:16.302Z,64.20
2023-04-01T11:19:42.852Z,65.02
2023-04-01T11:22:10.760Z,64.44
2023-04-01T11:24:37.248Z,63.42
2023-04-01T11:27:03.730Z,62.74
2023-04-01T11:29:30.420Z,64.36
2023-04-01T11:31:56.862Z,65.51
2023-04-01T11:34:23.308Z,66.64
2023-04-01T11:36:49.729Z,66.12
2023-04-01T11:39:21.777Z,66.83
2023-04-01T11:41:48.253Z,65.17
2023-04-01T11:44:14.713Z,63.68
2023-04-01T11:46:42.716Z,64.78
2023-04-01T11:49:09.302Z,63.78
2023-04-01T11:51:35.824Z,66.47
2023-04-01T11:54:02.297Z,68.14
2023-04-01T11:56:28.718Z,72.96
2023-04-01T11:58:55.171Z,79.98
2023-04-01T12:01:21.614Z,79.55
2023-04-01T12:03:48.153Z,78.66
2023-04-01T12:06:14.747Z,77.28
2023-04-01T12:08:41.154Z,72.77
2023-04-01T12:11:07.641Z,74.27
2023-04-01T12:13:34.109Z,70.49
2023-04-01T12:16:00.544Z,70.03
2023-04-01T12:18:27.024Z,72.53
2023-04-01T12:20:54.437Z,65.82
2023-04-01T12:23:20.915Z,65.57
2023-04-01T12:25:47.325Z,67.27
2023-04-01T12:28:13.769Z,64.67
2023-04-01T12:30:40.242Z,66.03
2023-04-01T12:33:08.553Z,68.75
2023-04-01T12:35:35.290Z,69.19
2023-04-01T12:38:02.029Z,70.06
2023-04-01T12:40:29.684Z,72.35
2023-04-01T12:42:56.161Z,75.92
2023-04-01T12:45:22.617Z,76.55
2023-04-01T12:47:49.064Z,77.27
2023-04-01T12:50:15.886Z,76.85
2023-04-01T12:52:42.316Z,75.64
2023-04-01T12:55:09.096Z,77.74
2023-04-01T12:57:35.606Z,78.04
2023-04-01T13:00:02.070Z,77.38
2023-04-01T13:02:28.547Z,73.51
2023-04-01T13:04:54.973Z,74.06
2023-04-01T13:07:21.432Z,71.72
2023-04-01T13:09:52.029Z,71.21
2023-04-01T13:12:18.866Z,69.61
2023-04-01T13:14:45.418Z,69.26
2023-04-01T13:17:11.833Z,67.51
2023-04-01T13:19:38.333Z,67.33
2023-04-01T13:22:04.820Z,67.70
2023-04-01T13:24:31.375Z,68.65
2023-04-01T13:26:57.821Z,66.69
2023-04-01T13:29:24.330Z,68.70
2023-04-01T13:31:51.123Z,67.25
2023-04-01T13:34:17.548Z,68.09
2023-04-01T13:36:44.028Z,69.09
2023-04-01T13:39:10.442Z,67.51
2023-04-01T13:41:36.907Z,63.56
2023-04-01T13:44:03.337Z,64.12
2023-04-01T13:46:29.839Z,63.34
2023-04-01T13:48:56.371Z,61.86
2023-04-01T13:51:22.883Z,62.05
2023-04-01T13:53:49.340Z,63.31
2023-04-01T13:56:15.798Z,61.07
2023-04-01T13:58:42.223Z,62.55
2023-04-01T14:01:09.039Z,61.68
2023-04-01T14:03:35.935Z,60.32
2023-04-01T14:06:02.437Z,60.22
2023-04-01T14:08:28.952Z,61.18
2023-04-01T14:10:55.418Z,59.20
2023-04-01T14:13:21.865Z,60.86
2023-04-01T14:15:48.337Z,60.32
2023-04-01T14:18:14.748Z,61.24
2023-04-01T14:20:44.228Z,62.24
2023-04-01T14:23:10.638Z,64.86
2023-04-01T14:25:37.727Z,64.90
2023-04-01T14:28:04.496Z,67.12
2023-04-01T14:30:31.053Z,65.36
2023-04-01T14:32:57.542Z,64.46
2023-04-01T14:35:24.091Z,64.24
2023-04-01T14:37:50.701Z,64.37
2023-04-01T14:40:17.104Z,62.58
2023-04-01T14:42:43.512Z,63.49
2023-04-01T14:45:09.992Z,64.74
2023-04-01T14:47:36.515Z,65.24
2023-04-01T14:50:03.651Z,65.03
2023-04-01T14:52:30.465Z,64.46
2023-04-01T14:54:56.888Z,65.83
2023-04-01T14:57:27.904Z,64.68
2023-04-01T14:59:54.398Z,66.56
2023-04-01T15:02:20.896Z,66.16
2023-04-01T15:04:47.375Z,67.01
2023-04-01T15:07:13.832Z,64.68
2023-04-01T15:09:40.309Z,62.27
2023-04-01T15:12:06.750Z,62.74
2023-04-01T15:14:33.252Z,61.31
2023-04-01T15:16:59.660Z,60.57
2023-04-01T15:19:26.302Z,59.21
2023-04-01T15:21:53.690Z,61.48
2023-04-01T15:24:20.157Z,59.78
2023-04-01T15:26:46.580Z,60.98
2023-04-01T15:29:13.127Z,61.40
2023-04-01T15:31:39.619Z,62.93
2023-04-01T15:34:06.626Z,62.75
2023-04-01T15:36:33.096Z,62.67
2023-04-01T15:38:59.519Z,64.43
2023-04-01T15:41:26.018Z,63.27
2023-04-01T15:43:55.641Z,64.53
2023-04-01T15:46:22.092Z,63.37
2023-04-01T15:48:48.670Z,64.44
2023-04-01T15:51:15.102Z,65.24
2023-04-01T15:53:41.519Z,65.75
2023-04-01T15:56:07.944Z,65.40
2023-04-01T15:58:34.360Z,65.46
2023-04-01T16:01:00.878Z,67.09
2023-04-01T16:03:27.591Z,67.49
2023-04-01T16:05:54.133Z,67.48
2023-04-01T16:08:20.778Z,67.99
2023-04-01T16:10:48.400Z,67.53
2023-04-01T16:13:14.870Z,67.90
2023-04-01T16:15:41.691Z,69.33
2023-04-01T16:18:08.139Z,68.02
2023-04-01T16:20:34.679Z,67.77
2023-04-01T16:23:01.588Z,67.86
2023-04-01T16:25:30.398Z,67.48
2023-04-01T16:27:56.831Z,67.52
2023-04-01T16:30:23.282Z,66.63
2023-04-01T16:32:49.764Z,66.98
2023-04-01T16:35:16.294Z,65.99
2023-04-01T16:37:42.705Z,67.56
2023-04-01T16:40:09.122Z,68.29
2023-04-01T16:42:36.321Z,68.20
2023-04-01T16:45:02.758Z,69.27
2023-04-01T16:47:29.652Z,67.99
2023-04-01T16:49:56.775Z,69.09
2023-04-01T16:52:23.191Z,71.01
2023-04-01T16:54:50.143Z,71.56
2023-04-01T16:57:17.385Z,70.50
2023-04-01T16:59:43.916Z,71.40
2023-04-01T17:02:10.573Z,72.56
2023-04-01T17:04:37.281Z,73.50
2023-04-01T17:07:03.882Z,72.93
2023-04-01T17:09:30.389Z,73.27
2023-04-01T17:11:56.832Z,75.30
2023-04-01T17:14:23.280Z,77.31
2023-04-01T17:16:49.725Z,78.90
2023-04-01T17:19:16.894Z,79.95
2023-04-01T17:21:43.396Z,79.62
2023-04-01T17:24:09.805Z,77.38
2023-04-01T17:26:36.236Z,82.61
2023-04-01T17:29:02.697Z,84.12
2023-04-01T17:31:29.178Z,85.21
2023-04-01T17:33:55.690Z,85.26
2023-04-01T17:36:22.240Z,86.61
2023-04-01T17:38:48.657Z,88.73
2023-04-01T17:41:15.113Z,88.57
2023-04-01T17:43:41.632Z,88.80
2023-04-01T17:46:08.091Z,89.00
2023-04-01T17:48:35.020Z,88.40
2023-04-01T17:51:01.799Z,88.58
2023-04-01T17:53:28.214Z,89.08
2023-04-01T17:55:54.649Z,89.08
2023-04-01T17:58:22.012Z,88.99
2023-04-01T18:00:54.049Z,88.89
2023-04-01T18:03:21.331Z,91.11
2023-04-01T18:05:47.856Z,90.53
2023-04-01T18:08:14.332Z,90.90
2023-04-01T18:10:40.873Z,89.42
2023-04-01T18:13:09.061Z,89.90
2023-04-01T18:15:35.558Z,91.93
2023-04-01T18:18:02.042Z,91.43
2023-04-01T18:20:30.076Z,91.54
2023-04-01T18:22:56.489Z,92.16
2023-04-01T18:25:23.045Z,92.36
2023-04-01T18:27:49.486Z,93.60
2023-04-01T18:30:16.056Z,94.35
2023-04-01T18:32:42.474Z,92.40
2023-04-01T18:35:08.939Z,92.07
2023-04-01T18:37:35.486Z,91.20
2023-04-01T18:40:01.902Z,91.22
2023-04-01T18:42:28.328Z,90.66
2023-04-01T18:44:54.730Z,91.25
2023-04-01T18:47:21.342Z,90.12
2023-04-01T18:49:47.774Z,89.48
2023-04-01T18:52:14.201Z,90.79
2023-04-01T18:54:40.636Z,90.81
2023-04-01T18:57:07.181Z,90.98
2023-04-01T18:59:33.703Z,90.83
2023-04-01T19:02:00.256Z,90.70
2023-04-01T19:04:27.339Z,91.17
2023-04-01T19:06:53.835Z,92.66
2023-04-01T19:09:20.336Z,92.67
2023-04-01T19:11:50.915Z,93.30
2023-04-01T19:14:17.409Z,94.16
2023-04-01T19:16:45.099Z,94.22
2023-04-01T19:19:12.320Z,95.40
2023-04-01T19:21:38.779Z,95.95
2023-04-01T19:24:05.250Z,96.38
2023-04-01T19:26:31.655Z,97.71
2023-04-01T19:28:58.152Z,99.00
2023-04-01T19:31:24.639Z,99.66
2023-04-01T19:33:51.157Z,99.71
2023-04-01T19:36:17.582Z,99.40
2023-04-01T19:38:44.061Z,98.72
2023-04-01T19:41:10.512Z,98.49
2023-04-01T19:43:36.928Z,98.74
2023-04-01T19:46:03.378Z,98.02
2023-04-01T19:48:29.806Z,97.37
2023-04-01T19:50:56.669Z,97.33
2023-04-01T19:53:23.276Z,97.11
2023-04-01T19:55:49.708Z,96.67
2023-04-01T19:58:16.278Z,97.49
2023-04-01T20:00:42.701Z,98.73
2023-04-01T20:03:09.234Z,98.84
2023-04-01T20:05:35.990Z,98.78
2023-04-01T20:08:02.583Z,99.24
2023-04-01T20:10:28.987Z,100.00
2023-04-01T20:12:56.691Z,99.69
2023-04-01T20:15:23.142Z,99.14
2023-04-01T20:17:49.647Z,99.45
2023-04-01T20:20:16.254Z,99.25
2023-04-01T20:22:42.677Z,98.73
2023-04-01T20:25:09.171Z,98.68
2023-04-01T20:27:35.606Z,99.33
2023-04-01T20:30:02.036Z,100.00
2023-04-01T20:32:28.557Z,98.97
2023-04-01T20:34:55.383Z,97.85
2023-04-01T20:37:21.871Z,97.87
2023-04-01T20:39:48.379Z,98.55
2023-04-01T20:42:14.788Z,98.37
2023-04-01T20:44:41.453Z,98.89
2023-04-01T20:47:08.103Z,98.37
2023-04-01T20:49:34.533Z,97.76
2023-04-01T20:52:00.971Z,97.43
2023-04-01T20:54:27.409Z,97.55
2023-04-01T20:56:55.779Z,97.04
2023-04-01T20:59:25.018Z,96.57
2023-04-01T21:01:51.906Z,97.11
2023-04-01T21:04:18.535Z,95.83
2023-04-01T21:06:44.995Z,95.42
2023-04-01T21:09:11.396Z,95.98
2023-04-01T21:11:38.204Z,97.67
2023-04-01T21:14:04.650Z,97.07
2023-04-01T21:16:31.805Z,97.73
2023-04-01T21:18:59.078Z,96.28
2023-04-01T21:21:25.537Z,96.13
2023-04-01T21:23:52.031Z,96.70
2023-04-01T21:26:18.488Z,97.66
2023-04-01T21:28:44.994Z,98.02
2023-04-01T21:31:11.493Z,98.66
2023-04-01T21:33:37.908Z,100.00
2023-04-01T21:36:04.323Z,100.00
2023-04-01T21:38:30.844Z,100.00
2023-04-01T21:40:57.307Z,100.00
2023-04-01T21:43:23.723Z,100.00
2023-04-01T21:45:50.299Z,100.00
2023-04-01T21:48:16.760Z,100.00
2023-04-01T21:50:43.190Z,100.00
2023-04-01T21:53:09.648Z,100.00
2023-04-01T21:55:36.400Z,100.00
2023-04-01T21:58:03.053Z,100.00
2023-04-01T22:00:29.500Z,100.00
2023-04-01T22:02:56.016Z,100.00
2023-04-01T22:05:22.471Z,100.00
2023-04-01T22:07:48.882Z,100.00
2023-04-01T22:10:15.389Z,100.00
2023-04-01T22:12:41.813Z,100.00
2023-04-01T22:15:08.241Z,100.00
2023-04-01T22:17:34.708Z,100.00
2023-04-01T22:20:10.481Z,100.00
2023-04-01T22:22:37.098Z,100.00
2023-04-01T22:25:03.538Z,100.00
2023-04-01T22:27:29.950Z,100.00
2023-04-01T22:29:56.673Z,100.00
2023-04-01T22:32:23.127Z,100.00
2023-04-01T22:34:49.549Z,100.00
2023-04-01T22:37:16.001Z,100.00
2023-04-01T22:39:42.440Z,100.00
2023-04-01T22:42:08.947Z,100.00
2023-04-01T22:44:35.649Z,100.00
2023-04-01T22:47:02.084Z,100.00
2023-04-01T22:49:29.053Z,100.00
2023-04-01T22:51:55.700Z,100.00
2023-04-01T22:54:22.204Z,100.00
2023-04-01T22:56:48.694Z,100.00
2023-04-01T22:59:15.161Z,100.00
2023-04-01T23:01:42.342Z,100.00
2023-04-01T23:04:09.893Z,100.00
2023-04-01T23:06:36.544Z,100.00
2023-04-01T23:09:03.266Z,100.00
2023-04-01T23:11:29.679Z,100.00
2023-04-01T23:13:56.126Z,100.00
2023-04-01T23:16:22.812Z,100.00
2023-04-01T23:18:49.316Z,100.00
2023-04-01T23:21:15.756Z,100.00
2023-04-01T23:23:42.194Z,100.00
2023-04-01T23:26:08.612Z,100.00
2023-04-01T23:28:35.093Z,100.00
2023-04-01T23:31:01.590Z,100.00
2023-04-01T23:33:28.069Z,100.00
2023-04-01T23:35:54.487Z,100.00
2023-04-01T23:38:21.018Z,100.00
2023-04-01T23:40:47.424Z,100.00
2023-04-01T23:43:13.870Z,100.00
2023-04-01T23:45:40.469Z,100.00
2023-04-01T23:48:06.908Z,100.00
2023-04-01T23:50:33.434Z,100.00
2023-04-01T23:52:59.927Z,100.00
2023-04-01T23:55:26.359Z,100.00
2023-04-01T23:57:52.794Z,100.00
